Emporia, Indiana
Current Conditions -  °F | °C
As of 5:36 AM on Tuesday 27 Jan 2015 (Local Time) from KMQJ Reporting Station
Overcast Overcast  
Wind Chill: 19°   Ceiling: 3000
Heat Index: 25°   Visibility: 10mi
Dew Point: 16°   Wind: 5mph
Humidity: 69%   Direction: 60°ENE
Pressure: 29.95"   Gusts: NA
Location:  39.9866°N, 85.6184°W
Report Text: KMQJ 271036Z AUTO 06004KT 10SM OVC030 M04/M09 A2995 RMK AO1
Loading
Personal Weather Stations






























Interactive Weather Map New forecast layout! Learn more

10-Day Weather Forecast

Advertisements
Track Severe Weather on mobile